TimePST,TemperatureF,Dew PointF,Humidity,Sea Level PressureIn,VisibilityMPH,Wind Direction,Wind SpeedMPH,Gust SpeedMPH,PrecipitationIn,Events,Conditions,WindDirDegrees,DateUTC
12:15 AM,51.8,42.8,71,29.95,10.0,WSW,5.8,-,N/A,,Clear,250,2013-01-09 08:15:00
12:35 AM,50.0,42.8,76,29.95,10.0,WSW,4.6,-,N/A,,Clear,250,2013-01-09 08:35:00
12:55 AM,50.0,42.8,76,29.95,10.0,SW,10.4,-,N/A,,Clear,220,2013-01-09 08:55:00
1:15 AM,51.8,42.8,71,29.94,10.0,SSW,11.5,-,N/A,,Clear,200,2013-01-09 09:15:00
1:35 AM,48.2,42.8,82,29.93,10.0,SE,8.1,-,N/A,,Clear,130,2013-01-09 09:35:00
1:55 AM,48.2,42.8,82,29.93,10.0,ESE,6.9,-,N/A,,Clear,120,2013-01-09 09:55:00
2:15 AM,48.2,42.8,82,29.92,10.0,SE,4.6,-,N/A,,Scattered Clouds,140,2013-01-09 10:15:00
2:35 AM,46.4,42.8,87,29.90,10.0,Calm,Calm,-,N/A,,Partly Cloudy,0,2013-01-09 10:35:00
2:55 AM,46.4,42.8,87,29.90,10.0,Calm,Calm,-,N/A,,Mostly Cloudy,0,2013-01-09 10:55:00
3:15 AM,46.4,42.8,87,29.88,10.0,SSE,8.1,-,N/A,,Scattered Clouds,150,2013-01-09 11:15:00
3:35 AM,46.4,42.8,87,29.86,10.0,South,6.9,-,N/A,,Clear,170,2013-01-09 11:35:00
3:55 AM,46.4,42.8,87,29.85,10.0,Calm,Calm,-,N/A,,Scattered Clouds,0,2013-01-09 11:55:00
4:15 AM,46.4,42.8,87,29.83,10.0,SE,16.1,-,N/A,,Partly Cloudy,140,2013-01-09 12:15:00
4:35 AM,46.4,42.8,87,29.82,10.0,SE,17.3,-,N/A,,Partly Cloudy,140,2013-01-09 12:35:00
4:55 AM,46.4,42.8,87,29.81,10.0,SSE,17.3,-,N/A,,Mostly Cloudy,150,2013-01-09 12:55:00
5:15 AM,48.2,42.8,82,29.78,10.0,SSE,19.6,-,N/A,,Overcast,150,2013-01-09 13:15:00
5:35 AM,48.2,42.8,82,29.77,10.0,SSE,19.6,-,N/A,,Overcast,150,2013-01-09 13:35:00
5:55 AM,48.2,44.6,87,29.78,7.0,SSE,16.1,-,0.01,,Overcast,160,2013-01-09 13:55:00
6:15 AM,48.2,44.6,87,29.80,10.0,SSW,11.5,-,0.04,,Overcast,200,2013-01-09 14:15:00
6:35 AM,44.6,41.0,87,29.81,10.0,West,10.4,-,0.09,,Overcast,260,2013-01-09 14:35:00
6:55 AM,44.6,41.0,87,29.82,10.0,West,5.8,-,0.10,,Mostly Cloudy,260,2013-01-09 14:55:00
7:15 AM,42.8,41.0,93,29.83,10.0,West,5.8,-,N/A,,Overcast,280,2013-01-09 15:15:00
7:35 AM,42.8,39.2,87,29.84,10.0,West,5.8,-,0.01,,Overcast,270,2013-01-09 15:35:00
7:55 AM,42.8,39.2,87,29.87,10.0,WNW,8.1,-,0.01,,Overcast,290,2013-01-09 15:55:00
8:15 AM,42.8,39.2,87,29.88,10.0,WNW,5.8,-,0.01,,Overcast,290,2013-01-09 16:15:00
8:35 AM,42.8,37.4,81,29.89,10.0,NW,5.8,-,0.01,,Overcast,310,2013-01-09 16:35:00
8:55 AM,42.8,37.4,81,29.91,10.0,Calm,Calm,-,0.01,,Mostly Cloudy,0,2013-01-09 16:55:00
9:15 AM,42.8,37.4,81,29.91,7.0,Calm,Calm,-,N/A,,Mostly Cloudy,0,2013-01-09 17:15:00
9:35 AM,42.8,37.4,81,29.92,10.0,Calm,Calm,-,N/A,,Overcast,0,2013-01-09 17:35:00
9:55 AM,42.8,39.2,87,29.93,10.0,Calm,Calm,-,N/A,,Overcast,0,2013-01-09 17:55:00
10:15 AM,42.8,39.2,87,29.94,10.0,SW,6.9,-,N/A,,Overcast,230,2013-01-09 18:15:00
10:35 AM,42.8,39.2,87,29.95,10.0,WSW,5.8,-,0.01,,Mostly Cloudy,250,2013-01-09 18:35:00
10:55 AM,42.8,37.4,81,29.96,10.0,West,10.4,-,0.01,,Overcast,260,2013-01-09 18:55:00
11:15 AM,42.8,37.4,81,29.95,10.0,West,12.7,-,N/A,,Overcast,270,2013-01-09 19:15:00
11:35 AM,42.8,37.4,81,29.96,10.0,WSW,11.5,-,N/A,,Overcast,250,2013-01-09 19:35:00
11:55 AM,42.8,37.4,81,29.96,10.0,West,10.4,-,N/A,,Overcast,270,2013-01-09 19:55:00
12:15 PM,42.8,37.4,81,29.94,10.0,WSW,8.1,-,N/A,,Mostly Cloudy,250,2013-01-09 20:15:00
12:35 PM,42.8,35.6,76,29.94,10.0,SSW,4.6,-,N/A,,Overcast,200,2013-01-09 20:35:00
12:55 PM,42.8,37.4,81,29.96,10.0,WSW,9.2,-,N/A,,Overcast,240,2013-01-09 20:55:00
1:15 PM,39.2,37.4,93,29.98,7.0,West,17.3,23.0,0.02,,Overcast,260,2013-01-09 21:15:00
1:35 PM,41.0,37.4,87,29.97,10.0,SSW,8.1,-,0.03,,Mostly Cloudy,200,2013-01-09 21:35:00
1:55 PM,39.2,35.6,87,29.96,10.0,SW,5.8,-,0.03,,Mostly Cloudy,220,2013-01-09 21:55:00
2:15 PM,39.2,37.4,93,29.97,10.0,South,6.9,-,N/A,,Scattered Clouds,170,2013-01-09 22:15:00
2:35 PM,41.0,37.4,87,29.97,10.0,South,8.1,-,N/A,,Scattered Clouds,170,2013-01-09 22:35:00
2:55 PM,42.8,37.4,81,29.97,10.0,SSE,8.1,-,N/A,,Partly Cloudy,160,2013-01-09 22:55:00
3:15 PM,41.0,37.4,87,29.98,10.0,South,6.9,-,N/A,,Clear,180,2013-01-09 23:15:00
3:35 PM,41.0,35.6,81,29.98,10.0,SSW,10.4,-,N/A,,Partly Cloudy,210,2013-01-09 23:35:00
3:55 PM,41.0,35.6,81,30.00,10.0,SW,12.7,-,0.01,,Mostly Cloudy,230,2013-01-09 23:55:00
4:15 PM,39.2,35.6,87,29.98,10.0,SSW,5.8,-,0.02,,Mostly Cloudy,200,2013-01-10 00:15:00
4:35 PM,37.4,35.6,93,29.99,10.0,SSW,5.8,-,0.02,,Mostly Cloudy,210,2013-01-10 00:35:00
4:55 PM,37.4,35.6,93,29.98,10.0,South,4.6,-,0.02,,Mostly Cloudy,170,2013-01-10 00:55:00
5:15 PM,37.4,35.6,93,29.99,10.0,Calm,Calm,-,0.01,,Scattered Clouds,0,2013-01-10 01:15:00
5:35 PM,37.4,35.6,93,29.99,10.0,Calm,Calm,-,0.01,,Mostly Cloudy,0,2013-01-10 01:35:00
5:55 PM,37.4,35.6,93,29.99,10.0,Calm,Calm,-,0.02,,Overcast,0,2013-01-10 01:55:00
6:35 PM,37.4,35.6,93,29.99,10.0,NE,4.6,-,N/A,,Scattered Clouds,40,2013-01-10 02:35:00
6:55 PM,37.4,35.6,93,29.99,10.0,ESE,5.8,-,N/A,,Scattered Clouds,120,2013-01-10 02:55:00
7:15 PM,37.4,35.6,93,30.00,10.0,West,4.6,-,N/A,,Overcast,260,2013-01-10 03:15:00
7:35 PM,37.4,35.6,93,30.00,10.0,North,3.5,-,N/A,,Overcast,350,2013-01-10 03:35:00
8:15 PM,37.4,35.6,93,30.00,10.0,SSE,3.5,-,0.01,,Overcast,150,2013-01-10 04:15:00
8:35 PM,37.4,35.6,93,30.00,10.0,SE,3.5,-,0.01,,Overcast,130,2013-01-10 04:35:00
8:55 PM,37.4,35.6,93,30.00,10.0,Calm,Calm,-,0.01,,Overcast,0,2013-01-10 04:55:00
9:15 PM,37.4,35.6,93,30.00,10.0,Calm,Calm,-,N/A,,Mostly Cloudy,0,2013-01-10 05:15:00
9:35 PM,35.6,33.8,93,30.02,10.0,West,5.8,-,N/A,,Overcast,280,2013-01-10 05:35:00
9:55 PM,37.4,35.6,93,30.01,10.0,Calm,Calm,-,0.03,,Mostly Cloudy,0,2013-01-10 05:55:00
10:15 PM,35.6,33.8,93,30.01,10.0,Calm,Calm,-,N/A,,Mostly Cloudy,0,2013-01-10 06:15:00
10:35 PM,35.6,33.8,93,30.01,10.0,Calm,Calm,-,N/A,,Partly Cloudy,0,2013-01-10 06:35:00
10:55 PM,35.6,33.8,93,30.02,10.0,Calm,Calm,-,N/A,,Mostly Cloudy,0,2013-01-10 06:55:00
11:15 PM,35.6,35.6,100,30.02,10.0,Calm,Calm,-,N/A,,Overcast,0,2013-01-10 07:15:00
11:35 PM,35.6,35.6,100,30.01,10.0,Calm,Calm,-,0.01,,Overcast,0,2013-01-10 07:35:00
11:55 PM,35.6,33.8,93,30.01,10.0,Calm,Calm,-,0.01,,Scattered Clouds,0,2013-01-10 07:55:00